Time;durP1;ratioP1;P1;durP2;ratioP2;P2;SDS_P1;SDS_P2;PMS_P1;PMS_P2;Temp;Humidity;BMP_temperature;BMP_pressure;BME280_temperature;BME280_humidity;BME280_pressure;Samples;Min_cycle;Max_cycle;Signal;HPM_P1;HPM_P2
2023/07/09 00:02:17;;;;;;;0.10;0.10;;;;;;;20.66;45.38;100905.75;7351371;19;20006;-64
2023/07/09 00:04:43;;;;;;;0.00;0.00;;;;;;;20.63;44.91;100910.38;7350725;19;20452;-64
2023/07/09 00:07:32;;;;;;;0.10;0.10;;;;;;;20.59;44.11;100911.53;7352168;19;20370;-64
2023/07/09 00:09:58;;;;;;;0.08;0.08;;;;;;;20.54;45.42;100909.16;7346950;19;20038;-64
2023/07/09 00:12:25;;;;;;;0.10;0.10;;;;;;;20.51;45.35;100903.19;7351905;19;20017;-64
2023/07/09 00:14:50;;;;;;;0.03;0.03;;;;;;;20.45;45.41;100899.94;7352363;19;20347;-64
2023/07/09 00:17:34;;;;;;;0.10;0.10;;;;;;;20.43;44.77;100899.19;7354084;19;20014;-64
2023/07/09 00:20:00;;;;;;;0.00;0.00;;;;;;;20.40;45.94;100904.66;7351301;19;20778;-64
2023/07/09 00:22:29;;;;;;;0.00;0.00;;;;;;;20.36;46.19;100905.78;7355784;19;20010;-64
2023/07/09 00:24:56;;;;;;;0.10;0.10;;;;;;;20.34;46.42;100920.09;7349382;19;20018;-64
2023/07/09 00:27:25;;;;;;;0.10;0.10;;;;;;;20.31;45.91;100923.78;7356963;19;20014;-64
2023/07/09 00:29:52;;;;;;;0.10;0.10;;;;;;;20.25;46.44;100913.53;7360749;19;20007;-64
2023/07/09 00:32:24;;;;;;;0.10;0.10;;;;;;;20.25;46.21;100907.38;7332536;19;20010;-64
2023/07/09 00:34:51;;;;;;;0.10;0.10;;;;;;;20.20;45.82;100913.81;7336115;19;20015;-64
2023/07/09 00:37:19;;;;;;;0.00;0.00;;;;;;;20.17;46.21;100913.13;7358446;19;20007;-64
2023/07/09 00:39:45;;;;;;;0.10;0.10;;;;;;;20.14;46.36;100921.28;7358333;19;20014;-64
2023/07/09 00:42:17;;;;;;;0.10;0.10;;;;;;;20.12;46.65;100923.16;7353913;19;20026;-64
2023/07/09 00:44:51;;;;;;;0.00;0.00;;;;;;;20.09;46.57;100912.75;7355812;19;20014;-64
2023/07/09 00:47:58;;;;;;;0.00;0.00;;;;;;;20.08;45.40;100905.75;7357298;19;20014;-64
2023/07/09 00:50:27;;;;;;;0.10;0.10;;;;;;;20.02;47.22;100906.97;7249741;19;2004345;-64
2023/07/09 00:53:18;;;;;;;0.00;0.00;;;;;;;20.03;45.77;100905.16;7352001;19;20030;-64
2023/07/09 00:55:48;;;;;;;0.00;0.00;;;;;;;19.96;47.18;100908.16;7355846;19;20781;-64
2023/07/09 00:58:17;;;;;;;0.00;0.00;;;;;;;19.92;46.68;100905.75;7353737;19;20021;-64
2023/07/09 01:00:49;;;;;;;0.00;0.00;;;;;;;19.89;46.16;100922.72;7359188;19;20027;-64
2023/07/09 01:03:29;;;;;;;0.10;0.10;;;;;;;19.85;46.16;100915.88;7358315;19;20021;-64
2023/07/09 01:05:57;;;;;;;0.10;0.10;;;;;;;19.78;47.02;100919.84;7359560;19;20018;-64
2023/07/09 01:08:23;;;;;;;0.10;0.10;;;;;;;19.73;47.05;100921.88;7358505;19;20098;-64
2023/07/09 01:10:49;;;;;;;0.00;0.00;;;;;;;19.64;47.20;100909.16;7360301;19;20014;-64
2023/07/09 01:13:18;;;;;;;0.00;0.00;;;;;;;19.65;47.57;100913.50;7356775;19;20007;-64
2023/07/09 01:15:43;;;;;;;0.00;0.00;;;;;;;19.61;47.30;100911.97;7352868;19;20022;-60
2023/07/09 01:18:10;;;;;;;0.00;0.00;;;;;;;19.57;47.52;100919.22;7355503;19;20557;-64
2023/07/09 01:20:38;;;;;;;0.00;0.00;;;;;;;19.55;47.39;100917.59;7357408;19;21262;-64
2023/07/09 01:23:05;;;;;;;0.00;0.00;;;;;;;19.51;47.78;100918.69;7360174;19;20007;-64
2023/07/09 01:25:31;;;;;;;;;;;;;;;19.49;46.01;100915.31;7356447;19;20054;-64
2023/07/09 01:27:57;;;;;;;0.10;0.10;;;;;;;19.43;47.89;100914.69;7358439;19;20328;-64
2023/07/09 01:30:28;;;;;;;0.10;0.10;;;;;;;19.40;47.73;100920.16;7358449;19;20023;-64
2023/07/09 01:32:58;;;;;;;0.10;0.10;;;;;;;19.35;47.50;100916.91;7358633;19;20011;-64
2023/07/09 01:35:25;;;;;;;0.10;0.10;;;;;;;19.30;47.96;100923.41;7358892;19;20033;-64
2023/07/09 01:37:51;;;;;;;0.00;0.00;;;;;;;19.24;48.07;100924.59;7354946;19;22215;-64
2023/07/09 01:40:19;;;;;;;0.10;0.10;;;;;;;19.19;48.09;100918.72;7354548;19;20022;-64
2023/07/09 01:42:45;;;;;;;0.10;0.10;;;;;;;19.13;47.93;100921.69;7359006;19;20024;-65
2023/07/09 01:45:12;;;;;;;0.08;0.08;;;;;;;19.08;47.76;100921.09;7353744;19;20014;-64
2023/07/09 01:47:38;;;;;;;0.00;0.00;;;;;;;19.02;47.96;100921.44;7355807;19;20609;-64
2023/07/09 01:50:05;;;;;;;0.10;0.10;;;;;;;18.95;48.10;100920.03;7356088;19;20024;-64
2023/07/09 01:52:33;;;;;;;0.00;0.00;;;;;;;18.88;48.34;100923.03;7357070;19;20031;-64
2023/07/09 01:54:59;;;;;;;0.00;0.00;;;;;;;18.80;48.08;100919.94;7351534;19;20346;-64
2023/07/09 01:57:32;;;;;;;0.10;0.10;;;;;;;18.68;48.24;100899.44;7354296;19;20020;-64
2023/07/09 02:00:00;;;;;;;0.00;0.00;;;;;;;18.70;48.50;100917.84;7354625;19;20006;-64
2023/07/09 02:02:25;;;;;;;0.00;0.00;;;;;;;18.63;48.74;100917.31;7359121;19;20018;-64
2023/07/09 02:04:53;;;;;;;0.00;0.00;;;;;;;18.56;48.77;100916.78;7353590;19;20347;-64
2023/07/09 02:07:19;;;;;;;;;;;;;;;18.52;46.86;100914.38;7351155;19;20029;-63
2023/07/09 02:09:45;;;;;;;0.00;0.00;;;;;;;18.45;48.51;100923.53;7355017;19;19957;-64
2023/07/09 02:12:11;;;;;;;0.10;0.10;;;;;;;18.39;48.32;100909.69;7353357;19;20493;-63
2023/07/09 02:14:39;;;;;;;0.00;0.00;;;;;;;18.32;48.27;100907.47;7354270;19;20444;-64
2023/07/09 02:17:05;;;;;;;0.00;0.00;;;;;;;18.13;48.89;100889.91;7355301;19;20010;-64
2023/07/09 02:19:31;;;;;;;0.08;0.08;;;;;;;18.19;48.68;100907.22;7355759;19;20521;-64
2023/07/09 02:21:57;;;;;;;0.00;0.00;;;;;;;18.13;48.67;100907.53;7353908;19;20014;-64
2023/07/09 02:24:24;;;;;;;0.00;0.00;;;;;;;18.08;49.17;100899.00;7355982;19;20007;-64
2023/07/09 02:26:54;;;;;;;0.00;0.00;;;;;;;18.04;48.93;100908.00;7348355;19;20015;-64
2023/07/09 02:29:19;;;;;;;0.03;0.03;;;;;;;17.98;49.00;100908.31;7349357;19;20082;-64
2023/07/09 02:31:45;;;;;;;0.10;0.10;;;;;;;17.93;49.34;100915.63;7350102;19;20639;-64
2023/07/09 02:34:11;;;;;;;0.10;0.10;;;;;;;17.54;49.44;100863.81;7356581;19;20018;-64
2023/07/09 02:36:36;;;;;;;0.00;0.00;;;;;;;17.83;49.34;100913.44;7351475;19;20973;-64
2023/07/09 02:39:02;;;;;;;0.10;0.10;;;;;;;17.79;49.37;100909.25;7353446;19;20014;-64
2023/07/09 02:41:27;;;;;;;0.05;0.05;;;;;;;17.72;49.78;100918.34;7355035;19;20022;-64
2023/07/09 02:43:53;;;;;;;0.00;0.00;;;;;;;17.69;49.62;100915.88;7354275;19;20089;-64
2023/07/09 02:46:18;;;;;;;0.10;0.10;;;;;;;17.30;49.80;100855.31;7354526;19;20098;-64
2023/07/09 02:48:44;;;;;;;0.00;0.00;;;;;;;17.58;50.09;100900.53;7352443;19;20465;-64
2023/07/09 02:51:09;;;;;;;0.10;0.10;;;;;;;17.57;49.67;100919.09;7357550;19;20525;-64
2023/07/09 02:53:35;;;;;;;0.00;0.00;;;;;;;17.52;49.66;100905.28;7349384;19;20014;-64
2023/07/09 02:56:00;;;;;;;0.00;0.00;;;;;;;17.48;50.15;100904.56;7357130;19;20007;-64
2023/07/09 02:58:26;;;;;;;0.10;0.10;;;;;;;17.43;50.42;100906.56;7348168;19;20014;-63
2023/07/09 03:00:54;;;;;;;0.10;0.10;;;;;;;17.41;50.20;100907.56;7355487;19;20118;-64
2023/07/09 03:03:20;;;;;;;0.03;0.03;;;;;;;17.25;50.27;100892.47;7349302;19;20392;-64
2023/07/09 03:05:47;;;;;;;0.10;0.10;;;;;;;17.32;50.33;100909.72;7353363;19;20413;-64
2023/07/09 03:08:13;;;;;;;0.10;0.10;;;;;;;17.30;50.82;100905.44;7354548;19;20010;-64
2023/07/09 03:10:38;;;;;;;0.10;0.10;;;;;;;17.23;50.92;100899.59;7344593;19;20489;-64
2023/07/09 03:13:04;;;;;;;0.03;0.03;;;;;;;17.21;50.88;100901.44;7354626;19;20011;-64
2023/07/09 03:15:30;;;;;;;0.10;0.10;;;;;;;17.20;50.90;100904.16;7340108;19;20027;-64
2023/07/09 03:17:56;;;;;;;0.00;0.00;;;;;;;17.11;50.88;100895.75;7348914;19;20042;-64
2023/07/09 03:20:21;;;;;;;0.10;0.10;;;;;;;17.10;50.98;100899.31;7340144;19;20451;-64
2023/07/09 03:22:47;;;;;;;0.00;0.00;;;;;;;17.10;50.96;100898.47;7353816;19;20011;-64
2023/07/09 03:25:12;;;;;;;0.08;0.08;;;;;;;17.06;50.83;100902.16;7348885;19;21080;-64
2023/07/09 03:27:37;;;;;;;0.00;0.00;;;;;;;17.01;51.13;100888.34;7354885;19;20090;-64
2023/07/09 03:30:03;;;;;;;0.10;0.10;;;;;;;17.01;50.93;100898.88;7353329;19;20037;-64
2023/07/09 03:32:30;;;;;;;0.00;0.00;;;;;;;16.97;51.19;100890.25;7356155;19;20007;-64
2023/07/09 03:34:55;;;;;;;0.08;0.08;;;;;;;16.94;50.78;100894.84;7355951;19;20442;-64
2023/07/09 03:37:20;;;;;;;0.10;0.10;;;;;;;16.92;51.32;100888.75;7353020;19;20006;-64
2023/07/09 03:39:46;;;;;;;0.00;0.00;;;;;;;16.88;50.91;100887.19;7355809;19;20017;-64
2023/07/09 03:42:11;;;;;;;0.10;0.10;;;;;;;16.84;51.07;100887.34;7352285;19;20011;-64
2023/07/09 03:44:37;;;;;;;0.10;0.10;;;;;;;16.82;51.34;100899.72;7355341;19;20014;-64
2023/07/09 03:47:03;;;;;;;0.00;0.00;;;;;;;16.45;51.19;100837.22;7350936;19;20509;-64
2023/07/09 03:49:28;;;;;;;0.00;0.00;;;;;;;16.77;51.56;100900.84;7354922;19;20717;-65
2023/07/09 03:51:54;;;;;;;0.00;0.00;;;;;;;16.73;51.35;100900.16;7347840;19;20010;-64
2023/07/09 03:54:19;;;;;;;0.10;0.10;;;;;;;16.69;51.48;100893.28;7355212;19;20011;-64
2023/07/09 03:56:45;;;;;;;0.10;0.10;;;;;;;16.67;51.93;100895.09;7345923;19;20007;-64
2023/07/09 03:59:10;;;;;;;0.00;0.00;;;;;;;16.63;51.53;100888.28;7355169;19;20082;-64
2023/07/09 04:01:35;;;;;;;0.05;0.05;;;;;;;16.62;51.91;100891.81;7353019;19;20418;-64
2023/07/09 04:04:01;;;;;;;0.10;0.10;;;;;;;16.53;52.06;100887.84;7358755;19;20017;-64
2023/07/09 04:06:26;;;;;;;0.10;0.10;;;;;;;16.57;51.64;100885.91;7358658;19;20028;-64
2023/07/09 04:08:52;;;;;;;0.10;0.10;;;;;;;16.53;51.65;100887.84;7359571;19;20023;-64
2023/07/09 04:11:17;;;;;;;0.10;0.10;;;;;;;16.50;51.61;100881.84;7357769;19;20015;-64
2023/07/09 04:13:43;;;;;;;0.10;0.10;;;;;;;16.47;51.78;100885.44;7359913;19;20364;-64
2023/07/09 04:16:10;;;;;;;0.08;0.08;;;;;;;16.41;52.04;100877.81;7359118;19;20019;-64
2023/07/09 04:18:36;;;;;;;0.00;0.00;;;;;;;16.42;52.43;100886.56;7358793;19;20011;-64
2023/07/09 04:21:02;;;;;;;0.00;0.00;;;;;;;16.40;52.55;100888.44;7361248;19;20119;-63
2023/07/09 04:23:27;;;;;;;0.10;0.10;;;;;;;16.38;52.45;100888.50;7356657;19;20018;-64
2023/07/09 04:25:53;;;;;;;0.10;0.10;;;;;;;16.35;52.51;100889.47;7361135;19;20014;-64
2023/07/09 04:28:18;;;;;;;0.10;0.10;;;;;;;16.29;52.96;100875.72;7356665;19;20027;-64
2023/07/09 04:30:48;;;;;;;0.10;0.10;;;;;;;16.32;52.25;100879.09;7359348;19;20010;-64
2023/07/09 04:33:17;;;;;;;0.10;0.10;;;;;;;16.31;52.94;100877.34;7355803;19;20015;-64
2023/07/09 04:35:43;;;;;;;0.10;0.10;;;;;;;16.30;52.73;100880.91;7360636;19;20463;-64
2023/07/09 04:38:08;;;;;;;0.10;0.10;;;;;;;16.31;53.31;100880.00;7358368;19;20025;-65
2023/07/09 04:40:34;;;;;;;0.08;0.08;;;;;;;16.30;52.80;100878.28;7359022;19;20006;-64
2023/07/09 04:42:59;;;;;;;0.10;0.10;;;;;;;16.30;53.46;100880.06;7358499;19;20023;-64
2023/07/09 04:45:24;;;;;;;0.00;0.00;;;;;;;16.31;53.36;100877.34;7356828;19;20010;-64
2023/07/09 04:47:50;;;;;;;0.00;0.00;;;;;;;16.25;53.47;100867.09;7359731;19;20010;-64
2023/07/09 04:50:15;;;;;;;0.10;0.10;;;;;;;16.30;53.47;100875.66;7357710;19;20022;-63
2023/07/09 04:52:41;;;;;;;0.00;0.00;;;;;;;16.31;53.15;100881.78;7358723;19;20018;-64
2023/07/09 04:55:08;;;;;;;0.10;0.10;;;;;;;16.30;53.69;100875.66;7358860;19;20026;-64
2023/07/09 04:57:33;;;;;;;0.00;0.00;;;;;;;16.30;53.41;100874.78;7359507;19;20018;-64
2023/07/09 04:59:59;;;;;;;0.03;0.03;;;;;;;16.34;53.33;100876.38;7353912;19;20010;-64
2023/07/09 05:02:24;;;;;;;0.00;0.00;;;;;;;16.37;53.92;100872.75;7355733;19;20007;-64
2023/07/09 05:04:50;;;;;;;0.10;0.10;;;;;;;16.39;54.05;100873.53;7355523;19;20752;-64
2023/07/09 05:07:16;;;;;;;0.10;0.10;;;;;;;16.42;53.66;100876.03;7356993;19;20010;-64
2023/07/09 05:09:41;;;;;;;0.10;0.10;;;;;;;16.48;53.90;100878.41;7358630;19;20038;-62
2023/07/09 05:12:08;;;;;;;0.10;0.10;;;;;;;16.51;53.57;100878.25;7355574;19;20014;-64
2023/07/09 05:14:33;;;;;;;0.00;0.00;;;;;;;16.57;54.32;100876.22;7356779;19;20010;-63
2023/07/09 05:16:59;;;;;;;0.00;0.00;;;;;;;16.61;54.01;100876.94;7356224;19;20025;-64
2023/07/09 05:19:24;;;;;;;0.00;0.00;;;;;;;16.71;53.92;100874.72;7360052;19;20026;-63
2023/07/09 05:21:50;;;;;;;0.00;0.00;;;;;;;16.69;53.73;100868.69;7355540;19;20841;-64
2023/07/09 05:24:15;;;;;;;0.03;0.03;;;;;;;16.75;53.63;100861.38;7359229;19;20716;-61
2023/07/09 05:26:41;;;;;;;0.00;0.00;;;;;;;16.84;54.11;100865.38;7358017;19;20597;-64
2023/07/09 05:29:06;;;;;;;0.05;0.05;;;;;;;16.96;54.11;100872.72;7360306;19;20034;-64
2023/07/09 05:31:32;;;;;;;0.08;0.08;;;;;;;17.01;54.23;100861.94;7351624;19;20450;-64
2023/07/09 05:33:59;;;;;;;0.00;0.00;;;;;;;17.06;54.41;100863.44;7356390;19;20018;-65
2023/07/09 05:36:26;;;;;;;0.07;0.07;;;;;;;17.12;53.92;100863.16;7358943;19;20019;-64
2023/07/09 05:38:52;;;;;;;0.00;0.00;;;;;;;17.16;54.07;100866.50;7352442;19;20553;-64
2023/07/09 05:41:17;;;;;;;0.00;0.00;;;;;;;17.21;54.16;100864.50;7358500;19;20017;-64
2023/07/09 05:43:46;;;;;;;0.10;0.10;;;;;;;17.25;54.27;100863.44;7355312;19;20679;-58
2023/07/09 05:46:13;;;;;;;0.10;0.10;;;;;;;17.30;53.96;100858.78;7357396;19;20347;-64
2023/07/09 05:48:39;;;;;;;0.00;0.00;;;;;;;17.33;53.87;100863.91;7355190;19;20011;-64
2023/07/09 05:51:04;;;;;;;0.10;0.10;;;;;;;17.37;54.02;100841.72;7357155;19;20011;-64
2023/07/09 05:53:31;;;;;;;0.10;0.10;;;;;;;17.43;53.83;100852.91;7355136;19;20016;-64
2023/07/09 05:55:57;;;;;;;0.00;0.00;;;;;;;17.47;53.95;100849.19;7355737;19;20343;-64
2023/07/09 05:58:23;;;;;;;0.10;0.10;;;;;;;17.50;54.34;100849.91;7352466;19;20015;-64
2023/07/09 06:00:53;;;;;;;0.08;0.08;;;;;;;17.58;53.56;100844.22;7351107;19;20026;-65
2023/07/09 06:03:21;;;;;;;0.05;0.05;;;;;;;17.60;54.13;100837.09;7353557;19;20989;-64
2023/07/09 06:05:49;;;;;;;0.10;0.10;;;;;;;17.69;54.22;100839.28;7339371;19;20598;-64
2023/07/09 06:08:15;;;;;;;0.10;0.10;;;;;;;17.76;54.19;100840.72;7355913;19;20046;-64
2023/07/09 06:10:53;;;;;;;0.00;0.00;;;;;;;17.85;53.42;100845.53;7357871;19;20525;-64
2023/07/09 06:13:20;;;;;;;0.03;0.03;;;;;;;17.89;54.26;100846.22;7354686;19;20014;-64
2023/07/09 06:15:46;;;;;;;0.10;0.10;;;;;;;17.92;55.37;100839.94;7354755;19;20441;-64
2023/07/09 06:18:11;;;;;;;0.10;0.10;;;;;;;18.06;55.39;100845.38;7350644;19;20010;-64
2023/07/09 06:20:38;;;;;;;0.10;0.10;;;;;;;18.15;55.64;100847.56;7354432;19;20350;-64
2023/07/09 06:23:03;;;;;;;0.10;0.10;;;;;;;18.24;55.31;100847.06;7354438;19;20014;-64
2023/07/09 06:25:29;;;;;;;0.10;0.10;;;;;;;18.26;55.87;100834.63;7352013;19;20010;-64
2023/07/09 06:27:54;;;;;;;0.10;0.10;;;;;;;18.44;55.85;100845.16;7355159;19;20478;-64
2023/07/09 06:30:19;;;;;;;0.10;0.10;;;;;;;18.54;55.76;100847.22;7355745;19;20043;-61
2023/07/09 06:32:45;;;;;;;0.10;0.10;;;;;;;18.56;56.26;100826.00;7348779;19;20552;-64
2023/07/09 06:35:11;;;;;;;0.10;0.10;;;;;;;18.78;56.69;100846.88;7354758;19;20055;-65
2023/07/09 06:37:36;;;;;;;0.00;0.00;;;;;;;18.76;57.63;100823.16;7353175;19;20715;-65
2023/07/09 06:40:04;;;;;;;0.00;0.00;;;;;;;19.04;57.13;100850.72;7357879;19;20034;-65
2023/07/09 06:42:29;;;;;;;;;;;;;;;19.22;52.88;100855.00;7357041;19;20026;-64
2023/07/09 06:44:55;;;;;;;0.10;0.10;;;;;;;19.26;56.59;100845.97;7352887;19;20015;-64
2023/07/09 06:47:20;;;;;;;0.10;0.10;;;;;;;19.36;56.42;100844.50;7352387;19;20493;-65
2023/07/09 06:49:45;;;;;;;0.00;0.00;;;;;;;19.45;56.15;100848.41;7355833;19;20017;-64
2023/07/09 06:52:11;;;;;;;0.10;0.10;;;;;;;19.52;56.04;100851.56;7351001;19;20021;-64
2023/07/09 06:54:36;;;;;;;0.10;0.10;;;;;;;19.59;55.64;100867.03;7351765;19;20020;-64
2023/07/09 06:57:02;;;;;;;0.10;0.10;;;;;;;19.65;55.93;100852.56;7350428;19;20029;-64
2023/07/09 06:59:28;;;;;;;0.10;0.10;;;;;;;19.69;55.40;100851.47;7347859;19;20017;-65
2023/07/09 07:01:53;;;;;;;0.10;0.10;;;;;;;19.72;55.77;100853.94;7349201;19;20018;-65
2023/07/09 07:04:18;;;;;;;0.10;0.10;;;;;;;19.74;55.78;100848.56;7355754;19;20012;-65
2023/07/09 07:06:44;;;;;;;0.10;0.10;;;;;;;19.75;56.11;100840.50;7347503;19;20038;-64
2023/07/09 07:09:10;;;;;;;0.10;0.10;;;;;;;19.74;56.26;100841.44;7352991;19;20018;-65
2023/07/09 07:11:35;;;;;;;0.10;0.10;;;;;;;19.74;56.69;100835.31;7351407;19;20369;-65
2023/07/09 07:14:00;;;;;;;0.10;0.10;;;;;;;19.75;56.53;100829.91;7352280;19;20557;-64
2023/07/09 07:16:26;;;;;;;0.10;0.10;;;;;;;19.80;56.67;100833.13;7346529;19;20017;-65
2023/07/09 07:18:51;;;;;;;0.10;0.10;;;;;;;19.82;56.13;100836.56;7354466;19;20863;-64
2023/07/09 07:21:17;;;;;;;0.10;0.10;;;;;;;19.84;56.26;100839.97;7349618;19;20011;-65
2023/07/09 07:23:42;;;;;;;0.10;0.10;;;;;;;19.87;56.09;100826.53;7352537;19;20055;-64
2023/07/09 07:26:08;;;;;;;0.10;0.10;;;;;;;19.87;56.01;100823.91;7356004;19;20129;-64
2023/07/09 07:28:36;;;;;;;0.08;0.08;;;;;;;19.96;56.11;100831.28;7351530;19;20021;-64
2023/07/09 07:31:08;;;;;;;0.10;0.10;;;;;;;19.85;56.27;100807.22;7352871;19;20014;-64
2023/07/09 07:33:34;;;;;;;0.00;0.00;;;;;;;19.98;56.51;100820.59;7352054;19;20776;-65
2023/07/09 07:35:59;;;;;;;0.10;0.10;;;;;;;20.03;56.17;100820.31;7359625;19;20006;-64
2023/07/09 07:38:25;;;;;;;0.10;0.10;;;;;;;20.06;55.59;100820.13;7359157;19;20016;-64
2023/07/09 07:40:50;;;;;;;0.10;0.10;;;;;;;20.08;56.29;100820.91;7358008;19;20044;-65
2023/07/09 07:43:16;;;;;;;0.10;0.10;;;;;;;20.10;56.31;100824.31;7357588;19;20006;-64
2023/07/09 07:45:42;;;;;;;0.00;0.00;;;;;;;20.13;56.97;100826.78;7356820;19;20026;-65
2023/07/09 07:48:08;;;;;;;0.10;0.10;;;;;;;19.84;57.61;100771.06;7352951;19;20982;-64
2023/07/09 07:50:34;;;;;;;0.10;0.10;;;;;;;20.21;57.98;100829.81;7359908;19;20039;-64
2023/07/09 07:52:59;;;;;;;0.10;0.10;;;;;;;20.25;57.72;100839.28;7357432;19;20026;-65
2023/07/09 07:55:25;;;;;;;0.10;0.10;;;;;;;20.32;57.57;100840.59;7354785;19;20010;-65
2023/07/09 07:57:50;;;;;;;0.10;0.10;;;;;;;20.36;57.90;100846.56;7358989;19;20014;-64
2023/07/09 08:00:16;;;;;;;0.10;0.10;;;;;;;20.40;58.10;100846.31;7358640;19;20082;-65
2023/07/09 08:02:41;;;;;;;0.10;0.10;;;;;;;20.45;58.81;100830.94;7355696;19;20470;-64
2023/07/09 08:05:07;;;;;;;0.10;0.10;;;;;;;20.54;59.14;100828.72;7357256;19;20010;-65
2023/07/09 08:07:32;;;;;;;0.10;0.10;;;;;;;20.63;59.19;100838.75;7356381;19;20349;-64
2023/07/09 08:09:58;;;;;;;0.10;0.10;;;;;;;20.75;58.38;100840.63;7354880;19;20028;-64
2023/07/09 08:12:23;;;;;;;0.10;0.10;;;;;;;20.87;57.98;100839.84;7353693;19;20022;-64
2023/07/09 08:14:49;;;;;;;0.10;0.10;;;;;;;20.93;57.75;100847.44;7359893;19;20018;-65
2023/07/09 08:17:14;;;;;;;0.10;0.10;;;;;;;21.06;57.48;100838.69;7356934;19;20881;-64
2023/07/09 08:19:54;;;;;;;0.10;0.10;;;;;;;21.13;55.80;100842.66;7358232;19;20018;-65
2023/07/09 08:22:22;;;;;;;0.10;0.10;;;;;;;21.13;57.17;100832.03;7349737;19;20042;-65
2023/07/09 08:24:49;;;;;;;0.10;0.10;;;;;;;21.18;57.97;100840.53;7357253;19;20031;-64
2023/07/09 08:27:14;;;;;;;0.00;0.00;;;;;;;21.22;57.36;100842.06;7355884;19;20855;-65
2023/07/09 08:29:41;;;;;;;0.08;0.08;;;;;;;21.25;57.51;100840.06;7358934;19;20404;-65
2023/07/09 08:32:07;;;;;;;0.00;0.00;;;;;;;21.32;57.25;100845.84;7352343;19;20297;-65
2023/07/09 08:34:33;;;;;;;0.10;0.10;;;;;;;21.35;57.56;100836.84;7355965;19;20010;-65
2023/07/09 08:36:58;;;;;;;0.10;0.10;;;;;;;21.35;57.27;100837.69;7359604;19;20010;-65
2023/07/09 08:39:24;;;;;;;0.10;0.10;;;;;;;21.46;56.04;100851.13;7355811;19;20037;-64
2023/07/09 08:42:07;;;;;;;0.10;0.10;;;;;;;21.45;55.96;100828.16;7358942;19;20013;-65
2023/07/09 08:44:48;;;;;;;0.10;0.10;;;;;;;21.50;55.50;100841.16;7357586;19;20010;-64
2023/07/09 08:47:38;;;;;;;0.10;0.10;;;;;;;21.48;55.43;100827.09;7358063;19;20011;-64
2023/07/09 08:50:11;;;;;;;0.10;0.10;;;;;;;21.45;56.45;100833.47;7359311;19;20094;-64
2023/07/09 08:52:37;;;;;;;0.10;0.10;;;;;;;21.30;56.79;100802.59;7352248;19;20049;-64
2023/07/09 08:55:28;;;;;;;0.10;0.10;;;;;;;21.44;55.78;100815.84;7357473;19;20014;-64
2023/07/09 08:58:00;;;;;;;0.10;0.10;;;;;;;21.49;55.64;100834.09;7352767;19;20014;-65
2023/07/09 09:00:44;;;;;;;0.10;0.10;;;;;;;21.54;55.38;100823.16;7356104;19;20006;-64
2023/07/09 09:03:16;;;;;;;0.10;0.10;;;;;;;21.53;55.45;100837.41;7357395;19;21609;-64
2023/07/09 09:05:46;;;;;;;0.10;0.10;;;;;;;21.42;59.87;100838.97;7354580;19;20010;-63
2023/07/09 09:08:30;;;;;;;0.00;0.00;;;;;;;21.26;60.76;100840.91;7355570;19;20010;-62
2023/07/09 09:11:27;;;;;;;0.10;0.10;;;;;;;21.08;56.74;100845.59;7357845;19;20010;-62
2023/07/09 09:13:55;;;;;;;;;;;;;;;20.87;55.07;100853.13;7250512;19;2004437;-62
2023/07/09 09:16:38;;;;;;;0.00;0.00;;;;;;;20.67;57.92;100846.41;7354871;19;20476;-63
2023/07/09 09:19:22;;;;;;;0.10;0.10;;;;;;;20.47;61.19;100845.00;7354653;19;20011;-63
2023/07/09 09:21:55;;;;;;;0.10;0.10;;;;;;;20.32;63.78;100851.22;7355526;19;20039;-63
2023/07/09 09:24:31;;;;;;;0.10;0.10;;;;;;;20.25;62.78;100860.50;7357474;19;20006;-63
2023/07/09 09:26:58;;;;;;;0.03;0.03;;;;;;;20.22;63.36;100855.38;7356783;19;20018;-63
2023/07/09 09:29:25;;;;;;;0.10;0.10;;;;;;;20.17;64.14;100847.72;7361465;19;20158;-62
2023/07/09 09:31:55;;;;;;;0.10;0.10;;;;;;;20.15;62.61;100843.44;7360344;19;20014;-64
2023/07/09 09:34:28;;;;;;;0.10;0.10;;;;;;;20.16;63.85;100845.97;7356027;19;20023;-64
2023/07/09 09:36:58;;;;;;;0.10;0.10;;;;;;;20.21;62.18;100848.34;7348503;19;20018;-64
2023/07/09 09:39:25;;;;;;;0.10;0.10;;;;;;;20.29;61.48;100854.06;7349915;19;20106;-64
2023/07/09 09:41:54;;;;;;;0.00;0.00;;;;;;;20.38;61.95;100856.16;7354802;19;20041;-64
2023/07/09 09:44:26;;;;;;;0.10;0.10;;;;;;;20.43;62.23;100859.38;7354443;19;20014;-64
2023/07/09 09:46:52;;;;;;;0.08;0.08;;;;;;;20.44;62.15;100865.53;7357640;19;20011;-64
2023/07/09 09:49:18;;;;;;;0.10;0.10;;;;;;;20.46;61.31;100858.34;7352628;19;20026;-64
2023/07/09 09:51:46;;;;;;;0.08;0.08;;;;;;;20.47;61.41;100852.09;7353169;19;20014;-64
2023/07/09 09:54:20;;;;;;;0.10;0.10;;;;;;;20.47;60.29;100866.22;7351357;19;20018;-64
2023/07/09 09:56:48;;;;;;;0.10;0.10;;;;;;;20.42;61.85;100852.34;7352858;19;20014;-64
2023/07/09 09:59:21;;;;;;;0.10;0.10;;;;;;;20.39;62.54;100857.88;7345300;19;20018;-64
2023/07/09 10:01:56;;;;;;;0.10;0.10;;;;;;;20.31;63.65;100851.31;7359408;19;20006;-64
2023/07/09 10:04:21;;;;;;;0.10;0.10;;;;;;;20.24;64.21;100848.19;7355441;19;20086;-64
2023/07/09 10:06:53;;;;;;;0.10;0.10;;;;;;;20.25;64.75;100839.28;7356691;19;20041;-64
2023/07/09 10:09:47;;;;;;;0.10;0.10;;;;;;;20.38;62.68;100844.69;7345880;19;20022;-64
2023/07/09 10:12:23;;;;;;;0.10;0.10;;;;;;;20.53;64.02;100840.25;7253712;19;2004387;-64
2023/07/09 10:15:19;;;;;;;0.10;0.10;;;;;;;20.69;62.26;100846.34;7357233;19;20010;-64
2023/07/09 10:18:03;;;;;;;0.10;0.10;;;;;;;20.83;62.99;100856.06;7253860;19;2004330;-64
2023/07/09 10:20:31;;;;;;;0.10;0.10;;;;;;;20.95;63.87;100845.53;7354125;19;20448;-65
2023/07/09 10:23:21;;;;;;;0.10;0.10;;;;;;;21.23;61.88;100849.06;7354920;19;20018;-64
2023/07/09 10:26:15;;;;;;;0.10;0.10;;;;;;;21.46;61.30;100843.16;7353067;19;20013;-65
2023/07/09 10:29:18;;;;;;;0.10;0.10;;;;;;;21.69;61.13;100835.44;7250428;19;2004515;-64
2023/07/09 10:31:55;;;;;;;0.10;0.10;;;;;;;21.87;61.76;100820.91;7249264;19;2004790;-64
2023/07/09 10:34:27;;;;;;;0.10;0.10;;;;;;;22.06;62.74;100822.31;7350778;19;20428;-64
2023/07/09 10:36:59;;;;;;;0.10;0.10;;;;;;;22.44;61.05;100823.19;7351318;19;20011;-64
2023/07/09 10:39:34;;;;;;;0.10;0.10;;;;;;;22.80;59.61;100813.53;7354568;19;20039;-65
2023/07/09 10:42:02;;;;;;;0.10;0.10;;;;;;;23.10;58.64;100809.66;7353273;19;20019;-65
2023/07/09 10:44:35;;;;;;;0.08;0.08;;;;;;;23.44;58.55;100814.19;7347852;19;20018;-65
2023/07/09 10:47:07;;;;;;;0.10;0.10;;;;;;;23.80;58.26;100796.41;7354204;19;20084;-65
2023/07/09 10:49:37;;;;;;;0.10;0.10;;;;;;;24.17;57.68;100793.53;7354899;19;20002;-65
2023/07/09 10:52:20;;;;;;;0.10;0.10;;;;;;;24.66;58.07;100789.69;7349967;19;20014;-65
2023/07/09 10:55:15;;;;;;;0.10;0.10;;;;;;;25.15;56.31;100788.41;7345474;19;20007;-65
2023/07/09 10:57:51;;;;;;;0.08;0.08;;;;;;;25.52;54.17;100791.53;7256086;19;2004629;-65
2023/07/09 11:00:22;;;;;;;0.10;0.10;;;;;;;25.80;52.40;100787.38;7356123;19;20563;-65
2023/07/09 11:02:58;;;;;;;0.00;0.00;;;;;;;26.07;52.03;100787.72;7349926;19;20014;-64
2023/07/09 11:05:23;;;;;;;0.10;0.10;;;;;;;26.37;49.99;100788.69;7354274;19;20006;-65
2023/07/09 11:08:01;;;;;;;0.10;0.10;;;;;;;26.64;49.64;100788.13;7354212;19;20036;-65
2023/07/09 11:10:35;;;;;;;0.10;0.10;;;;;;;26.88;50.52;100774.38;7348367;19;20078;-65
2023/07/09 11:13:08;;;;;;;0.00;0.00;;;;;;;27.17;49.63;100798.56;7353963;19;20034;-65
2023/07/09 11:15:41;;;;;;;0.05;0.05;;;;;;;27.28;48.26;100776.97;7354272;19;20900;-65
2023/07/09 11:18:13;;;;;;;0.10;0.10;;;;;;;27.42;47.46;100781.03;7354677;19;20458;-65
2023/07/09 11:20:44;;;;;;;0.00;0.00;;;;;;;27.50;47.12;100793.75;7354547;19;20006;-65
2023/07/09 11:23:24;;;;;;;0.10;0.10;;;;;;;27.43;47.17;100793.50;7353792;19;20026;-65
2023/07/09 11:26:12;;;;;;;0.00;0.00;;;;;;;27.31;47.30;100784.72;7350581;19;20046;-65
2023/07/09 11:28:39;;;;;;;0.00;0.00;;;;;;;27.05;48.29;100797.78;7346743;19;20002;-64
2023/07/09 11:31:46;;;;;;;0.00;0.00;;;;;;;26.87;50.87;100800.31;7353060;19;20887;-61
2023/07/09 11:34:14;;;;;;;0.00;0.00;;;;;;;26.37;57.26;100797.56;7247437;19;2004602;-61
2023/07/09 11:36:48;;;;;;;0.00;0.00;;;;;;;25.87;56.44;100800.13;7352343;19;20015;-62